Terminal Aerodrome Forecast
Issued by NWS

Home | Current Version | Previous Version | Text Only | Print | Product List | Glossary On
Versions: 1 2 3 4 5 6 7 8 9 10 11 12 13 14 15
104
FTUS46 KLOX 052351
TAFVNY
TAF
KVNY 052351Z 0600/0624 35015G25KT P6SM SCT250
     FM060500 35012KT P6SM SCT250
     FM060800 35009KT P6SM SCT250
     FM061400 36012KT P6SM SCT250
     FM062000 36015G25KT P6SM SKC=

USA.gov is the U.S. government's official web portal to all federal, state and local government web resources and services.